Time;durP1;ratioP1;P1;durP2;ratioP2;P2;SDS_P1;SDS_P2;PMS_P1;PMS_P2;Temp;Humidity;BMP_temperature;BMP_pressure;BME280_temperature;BME280_humidity;BME280_pressure;Samples;Min_cycle;Max_cycle;Signal;HPM_P1;HPM_P2
2022/01/07 00:01:35;;;;;;;10.60;4.38;;;;;;;-1.25;100.00;97827.72;5074139;28;20043;-68
2022/01/07 00:04:02;;;;;;;12.52;4.75;;;;;;;-1.41;100.00;97806.91;5073304;28;20457;-68
2022/01/07 00:06:28;;;;;;;15.05;4.80;;;;;;;-1.29;100.00;97829.78;5090867;28;20040;-66
2022/01/07 00:08:54;;;;;;;12.35;4.80;;;;;;;-1.32;100.00;97824.72;5091822;28;20048;-69
2022/01/07 00:11:20;;;;;;;13.85;4.97;;;;;;;-1.49;100.00;97804.03;5091195;28;20052;-67
2022/01/07 00:13:46;;;;;;;14.65;5.63;;;;;;;-1.48;100.00;97821.59;5091439;28;20123;-68
2022/01/07 00:16:12;;;;;;;13.95;5.00;;;;;;;-1.37;100.00;97834.84;5073916;28;20039;-68
2022/01/07 00:18:41;;;;;;;12.00;5.00;;;;;;;-1.38;100.00;97827.88;5089925;28;20538;-69
2022/01/07 00:21:07;;;;;;;13.80;4.70;;;;;;;-1.38;100.00;97833.16;5089924;28;20051;-67
2022/01/07 00:23:33;;;;;;;14.00;5.00;;;;;;;-1.46;100.00;97841.72;5091898;28;20051;-67
2022/01/07 00:25:59;;;;;;;11.38;4.97;;;;;;;-1.64;100.00;97824.63;5091432;28;20389;-67
2022/01/07 00:28:25;;;;;;;11.68;4.28;;;;;;;-1.54;100.00;97840.63;5040241;28;20542;-67
2022/01/07 00:30:51;;;;;;;12.77;4.43;;;;;;;-1.86;100.00;97798.97;5056419;28;20119;-66
2022/01/07 00:33:17;;;;;;;12.00;4.82;;;;;;;-1.73;100.00;97833.28;5090229;28;20070;-66
2022/01/07 00:35:43;;;;;;;11.95;4.35;;;;;;;-1.70;100.00;97844.47;5089924;28;20109;-66
2022/01/07 00:38:09;;;;;;;14.90;4.68;;;;;;;-1.73;100.00;97843.88;5090112;28;20059;-66
2022/01/07 00:40:35;;;;;;;13.68;4.70;;;;;;;-1.75;99.78;97845.81;5073176;28;20575;-66
2022/01/07 00:43:01;;;;;;;12.57;4.32;;;;;;;-1.96;99.94;97821.81;5089946;28;20055;-66
2022/01/07 00:45:27;;;;;;;11.65;3.67;;;;;;;-1.95;99.67;97844.69;5089873;28;20079;-66
2022/01/07 00:47:55;;;;;;;9.82;3.25;;;;;;;-1.99;100.00;97853.81;5089829;28;20102;-69
2022/01/07 00:50:21;;;;;;;9.57;2.90;;;;;;;-2.08;99.64;97849.25;5090553;28;20048;-67
2022/01/07 00:52:47;;;;;;;13.13;3.58;;;;;;;-2.21;99.10;97834.28;5089956;28;20082;-66
2022/01/07 00:55:14;;;;;;;11.38;3.15;;;;;;;-2.08;99.16;97854.53;5091209;28;20126;-68
2022/01/07 00:57:39;;;;;;;8.45;2.75;;;;;;;-2.12;98.80;97858.34;5094134;28;20104;-69
2022/01/07 01:00:09;;;;;;;8.73;2.67;;;;;;;-2.14;97.91;97855.00;5092901;28;20499;-68
2022/01/07 01:02:35;;;;;;;10.68;2.92;;;;;;;-2.15;97.51;97850.66;5091116;28;20054;-67
2022/01/07 01:05:02;;;;;;;9.00;2.67;;;;;;;-2.25;97.47;97843.41;5055786;28;20056;-67
2022/01/07 01:07:29;;;;;;;8.25;2.40;;;;;;;-2.16;96.67;97855.09;5072857;28;20044;-65
2022/01/07 01:09:55;;;;;;;8.38;2.03;;;;;;;-2.24;95.37;97849.53;5090771;28;20135;-66
2022/01/07 01:12:21;;;;;;;7.05;1.73;;;;;;;-2.26;94.26;97852.31;5089445;28;20131;-67
2022/01/07 01:14:46;;;;;;;6.82;1.90;;;;;;;-2.27;93.82;97837.38;5072266;28;20101;-67
2022/01/07 01:17:12;;;;;;;8.38;1.65;;;;;;;-2.26;93.73;97841.72;5090091;28;20492;-66
2022/01/07 01:19:38;;;;;;;6.10;1.55;;;;;;;-2.40;93.58;97818.13;5072196;28;20048;-67
2022/01/07 01:22:04;;;;;;;5.35;1.25;;;;;;;-2.25;91.23;97851.34;5090952;28;20063;-68
2022/01/07 01:24:30;;;;;;;6.20;1.45;;;;;;;-2.24;91.31;97850.38;5089221;28;20082;-65
2022/01/07 01:26:56;;;;;;;5.25;1.20;;;;;;;-2.25;90.88;97848.72;5090106;28;20135;-67
2022/01/07 01:29:22;;;;;;;3.70;1.02;;;;;;;-2.36;90.53;97824.84;5088754;28;20058;-68
2022/01/07 01:31:49;;;;;;;5.50;1.33;;;;;;;-2.35;90.63;97823.88;5055697;28;20107;-65
2022/01/07 01:34:15;;;;;;;6.80;1.25;;;;;;;-2.32;90.41;97826.31;5090439;28;20437;-66
2022/01/07 01:36:42;;;;;;;5.28;1.30;;;;;;;-2.10;90.65;97857.28;5090604;28;20079;-65
2022/01/07 01:39:08;;;;;;;6.00;1.50;;;;;;;-2.10;91.18;97856.44;5055719;28;20044;-66
2022/01/07 01:41:34;;;;;;;4.95;1.30;;;;;;;-2.07;89.44;97861.50;5089190;28;20050;-66
2022/01/07 01:44:00;;;;;;;5.88;1.10;;;;;;;-2.00;88.57;97857.44;5090436;28;20044;-67
2022/01/07 01:46:26;;;;;;;4.32;1.10;;;;;;;-1.96;89.44;97864.19;5089002;28;20044;-65
2022/01/07 01:48:52;;;;;;;4.35;1.15;;;;;;;-2.33;88.89;97803.47;5089251;28;20058;-65
2022/01/07 01:51:18;;;;;;;4.25;1.20;;;;;;;-2.05;89.61;97838.41;5090184;28;20040;-68
2022/01/07 01:53:43;;;;;;;5.30;1.20;;;;;;;-2.00;89.21;97865.38;5088844;28;20217;-65
2022/01/07 01:56:09;;;;;;;5.78;1.58;;;;;;;-2.19;89.89;97831.53;5090955;28;20083;-66
2022/01/07 01:58:35;;;;;;;6.82;1.33;;;;;;;-1.94;89.32;97862.25;5072638;28;20052;-67
2022/01/07 02:01:02;;;;;;;6.13;1.40;;;;;;;-2.01;90.11;97861.03;5072386;28;20056;-67
2022/01/07 02:03:28;;;;;;;5.40;1.60;;;;;;;-2.10;90.52;97857.28;5091488;28;20153;-65
2022/01/07 02:05:54;;;;;;;7.82;1.90;;;;;;;-2.02;90.63;97862.84;5090293;28;20055;-66
2022/01/07 02:08:20;;;;;;;5.15;1.40;;;;;;;-2.07;90.94;97853.56;5094472;28;20051;-67
2022/01/07 02:10:45;;;;;;;6.60;1.75;;;;;;;-2.02;91.40;97877.88;5094741;28;20044;-66
2022/01/07 02:13:12;;;;;;;5.75;1.52;;;;;;;-1.96;91.02;97872.97;5095513;28;20051;-67
2022/01/07 02:15:38;;;;;;;6.65;1.52;;;;;;;-1.97;91.39;97868.66;5094518;28;20055;-66
2022/01/07 02:18:04;;;;;;;8.70;1.92;;;;;;;-2.46;90.93;97792.13;5061184;28;20123;-67
2022/01/07 02:20:29;;;;;;;6.95;1.50;;;;;;;-2.27;91.64;97840.03;5061328;28;20419;-67
2022/01/07 02:22:57;;;;;;;5.70;1.45;;;;;;;-2.09;91.28;97868.72;5092842;28;20123;-65
2022/01/07 02:25:24;;;;;;;4.68;1.27;;;;;;;-2.01;91.05;97875.13;5093114;28;20101;-67
2022/01/07 02:27:51;;;;;;;5.82;1.27;;;;;;;-2.04;90.94;97877.16;5059655;28;20048;-66
2022/01/07 02:30:20;;;;;;;6.22;1.48;;;;;;;-2.13;91.10;97852.22;5093998;28;20494;-65
2022/01/07 02:32:47;;;;;;;5.20;1.20;;;;;;;-1.92;91.06;97892.13;5092760;28;20107;-65
2022/01/07 02:35:13;;;;;;;6.40;1.70;;;;;;;-1.97;90.84;97896.94;5094022;28;20055;-65
2022/01/07 02:37:39;;;;;;;5.18;1.20;;;;;;;-2.04;91.44;97887.75;5059554;28;20040;-67
2022/01/07 02:40:07;;;;;;;4.55;1.13;;;;;;;-2.06;90.63;97889.66;5075919;28;20100;-65
2022/01/07 02:42:33;;;;;;;5.40;1.33;;;;;;;-2.01;90.10;97896.31;5075641;28;20110;-65
2022/01/07 02:44:59;;;;;;;5.50;1.25;;;;;;;-2.08;88.98;97887.16;5076918;28;20040;-66
2022/01/07 02:47:30;;;;;;;7.30;1.30;;;;;;;-2.13;89.65;97899.03;5062423;28;20044;-67
2022/01/07 02:49:56;;;;;;;5.30;1.20;;;;;;;-2.13;88.74;97899.03;5095816;28;20039;-66
2022/01/07 02:52:22;;;;;;;4.45;1.30;;;;;;;-2.31;89.01;97875.63;5096141;28;20051;-67
2022/01/07 02:54:48;;;;;;;5.07;1.35;;;;;;;-2.11;89.61;97907.72;5095249;28;20044;-68
2022/01/07 02:57:13;;;;;;;5.78;1.50;;;;;;;-2.14;89.37;97907.94;5095942;28;20129;-65
2022/01/07 02:59:39;;;;;;;5.85;1.33;;;;;;;-2.45;89.36;97862.56;5095159;28;20032;-67
2022/01/07 03:02:05;;;;;;;5.78;1.35;;;;;;;-2.14;89.48;97902.66;5095188;28;20388;-68
2022/01/07 03:04:30;;;;;;;5.28;1.10;;;;;;;-2.08;88.05;97910.13;5095471;28;20157;-70
2022/01/07 03:06:56;;;;;;;3.03;0.70;;;;;;;-2.11;85.90;97913.00;5060552;28;20504;-70
2022/01/07 03:09:22;;;;;;;3.83;0.88;;;;;;;-2.10;85.40;97909.38;5078341;28;20042;-68
2022/01/07 03:11:48;;;;;;;4.43;0.95;;;;;;;-2.03;84.92;97905.31;5095373;28;20063;-66
2022/01/07 03:14:13;;;;;;;3.22;0.98;;;;;;;-1.93;84.93;97905.47;5095028;28;20556;-68
2022/01/07 03:16:40;;;;;;;3.83;1.17;;;;;;;-2.06;84.33;97908.19;5093981;28;20506;-67
2022/01/07 03:19:06;;;;;;;4.05;1.08;;;;;;;-1.99;85.44;97920.84;5061746;28;20044;-68
2022/01/07 03:21:32;;;;;;;3.58;1.00;;;;;;;-1.98;85.54;97924.34;5093949;28;20048;-68
2022/01/07 03:23:58;;;;;;;6.57;1.30;;;;;;;-2.02;86.38;97922.88;5094252;28;20074;-65
2022/01/07 03:26:23;;;;;;;6.53;1.23;;;;;;;-2.01;87.22;97916.63;5094393;28;20488;-64
2022/01/07 03:28:49;;;;;;;6.53;1.30;;;;;;;-2.08;87.48;97923.38;5090905;28;20100;-65
2022/01/07 03:31:15;;;;;;;4.72;1.30;;;;;;;-2.06;87.68;97918.78;5093458;28;20078;-66
2022/01/07 03:33:41;;;;;;;7.30;1.52;;;;;;;-2.11;87.84;97923.59;5092460;28;20119;-65
2022/01/07 03:36:07;;;;;;;6.88;1.48;;;;;;;-2.15;88.64;97930.06;5074408;28;20048;-64
2022/01/07 03:38:32;;;;;;;6.15;1.45;;;;;;;-2.21;88.83;97932.22;5093242;28;20123;-65
2022/01/07 03:40:58;;;;;;;6.93;1.67;;;;;;;-2.23;88.83;97936.78;5092381;28;20050;-65
2022/01/07 03:43:24;;;;;;;6.63;1.80;;;;;;;-2.28;89.36;97932.78;5094523;28;20054;-66
2022/01/07 03:45:50;;;;;;;6.45;1.70;;;;;;;-2.30;89.92;97927.59;5092586;28;20036;-70
2022/01/07 03:48:16;;;;;;;6.32;1.38;;;;;;;-2.25;89.39;97938.69;5075343;28;20044;-66
2022/01/07 03:50:42;;;;;;;5.10;1.35;;;;;;;-2.44;89.81;97901.31;5092127;28;20054;-65
2022/01/07 03:53:08;;;;;;;7.30;1.40;;;;;;;-2.28;89.86;97928.31;5093602;28;20043;-63
2022/01/07 03:55:34;;;;;;;5.50;1.30;;;;;;;-2.38;89.56;97922.00;5091732;28;20055;-65
2022/01/07 03:58:00;;;;;;;5.13;1.20;;;;;;;-2.37;90.31;97931.66;5091013;28;20051;-64
2022/01/07 04:00:34;;;;;;;7.22;1.45;;;;;;;-2.35;90.97;97935.03;5091728;28;20052;-65
2022/01/07 04:03:04;;;;;;;6.60;1.13;;;;;;;-2.36;90.99;97930.69;5092281;28;20039;-65
2022/01/07 04:05:30;;;;;;;7.25;1.40;;;;;;;-2.34;91.02;97928.81;5090358;28;20093;-65
2022/01/07 04:07:56;;;;;;;6.55;1.58;;;;;;;-2.33;90.54;97938.41;5090575;28;20040;-65
2022/01/07 04:10:22;;;;;;;5.38;1.17;;;;;;;-2.57;90.74;97895.22;5092471;28;20044;-66
2022/01/07 04:12:48;;;;;;;5.60;1.55;;;;;;;-2.48;90.06;97916.56;5057656;28;20040;-65
2022/01/07 04:15:16;;;;;;;6.03;1.60;;;;;;;-2.41;90.23;97935.50;5090845;28;20048;-65
2022/01/07 04:17:48;;;;;;;8.30;1.50;;;;;;;-2.33;91.25;97940.22;5090643;28;20081;-65
2022/01/07 04:20:18;;;;;;;6.10;1.60;;;;;;;-2.52;91.31;97903.69;5089847;28;20044;-64
2022/01/07 04:22:44;;;;;;;5.85;1.25;;;;;;;-2.71;90.84;97889.13;5089681;28;20085;-63
2022/01/07 04:25:17;;;;;;;8.82;1.90;;;;;;;-2.43;90.79;97918.88;5091033;28;20040;-66
2022/01/07 04:27:49;;;;;;;5.88;1.40;;;;;;;-2.31;91.51;97941.78;5090384;28;20105;-65
2022/01/07 04:30:16;;;;;;;6.80;1.98;;;;;;;-2.30;91.74;97951.44;5090727;28;20052;-66
2022/01/07 04:32:42;;;;;;;7.40;2.28;;;;;;;-2.40;92.17;97921.31;5091830;28;20063;-65
2022/01/07 04:35:10;;;;;;;8.15;2.10;;;;;;;-2.24;91.54;97945.66;5073484;28;20448;-65
2022/01/07 04:37:36;;;;;;;7.68;1.73;;;;;;;-2.57;91.05;97896.06;5091715;28;20048;-64
2022/01/07 04:40:07;;;;;;;6.90;2.08;;;;;;;-2.35;91.75;97948.25;5091364;28;20047;-64
2022/01/07 04:42:33;;;;;;;6.20;1.70;;;;;;;-2.48;91.65;97931.59;5091384;28;20089;-66
2022/01/07 04:44:59;;;;;;;7.85;1.60;;;;;;;-2.33;92.00;97964.88;5072839;28;20543;-66
2022/01/07 04:47:26;;;;;;;6.38;1.52;;;;;;;-2.39;91.94;97952.09;5091172;28;20039;-66
2022/01/07 04:49:52;;;;;;;6.03;1.52;;;;;;;-2.40;92.63;97961.00;5091570;28;20487;-67
2022/01/07 04:52:20;;;;;;;6.25;1.40;;;;;;;-2.37;92.75;97976.66;5092163;28;20040;-69
2022/01/07 04:54:46;;;;;;;7.72;1.80;;;;;;;-2.35;93.35;97966.78;5092542;28;20134;-64
2022/01/07 04:57:12;;;;;;;6.20;1.60;;;;;;;-2.31;93.68;97980.63;5090493;28;20151;-64
2022/01/07 04:59:38;;;;;;;6.90;1.95;;;;;;;-2.34;94.56;97980.84;5091271;28;20040;-65
2022/01/07 05:02:04;;;;;;;7.22;1.90;;;;;;;-2.34;95.41;97981.72;5090683;28;20067;-64
2022/01/07 05:04:30;;;;;;;6.75;1.73;;;;;;;-2.27;95.84;97988.22;5092104;28;20036;-66
2022/01/07 05:06:55;;;;;;;12.65;2.10;;;;;;;-2.40;96.73;97992.75;5091841;28;20048;-64
2022/01/07 05:09:21;;;;;;;5.88;1.77;;;;;;;-2.47;98.96;97986.19;5090599;28;20534;-67
2022/01/07 05:11:49;;;;;;;7.20;1.70;;;;;;;-2.54;97.61;97990.25;5092876;28;20492;-67
2022/01/07 05:14:15;;;;;;;6.63;1.63;;;;;;;-2.55;97.68;97988.56;5092909;28;20136;-69
2022/01/07 05:16:42;;;;;;;6.35;1.50;;;;;;;-2.60;95.54;97996.81;5090484;28;20098;-65
2022/01/07 05:19:09;;;;;;;5.82;1.42;;;;;;;-2.83;94.33;97957.94;5092422;28;20040;-66
2022/01/07 05:21:35;;;;;;;5.53;1.50;;;;;;;-2.75;94.46;97993.47;5091052;28;20050;-64
2022/01/07 05:24:01;;;;;;;6.28;1.70;;;;;;;-2.79;94.80;97992.00;5091381;28;20157;-67
2022/01/07 05:26:27;;;;;;;5.82;1.27;;;;;;;-2.82;95.07;97980.78;5092942;28;20047;-68
2022/01/07 05:28:53;;;;;;;6.03;1.50;;;;;;;-2.77;95.02;98011.25;5094302;28;20040;-65
2022/01/07 05:31:22;;;;;;;6.00;1.40;;;;;;;-2.89;93.58;98001.53;5095221;28;20082;-67
2022/01/07 05:33:49;;;;;;;5.75;1.50;;;;;;;-2.87;93.15;98002.28;5093514;28;20040;-65
2022/01/07 05:36:15;;;;;;;6.13;1.67;;;;;;;-2.81;92.53;98027.44;5092962;28;20412;-66
2022/01/07 05:38:40;;;;;;;6.10;1.60;;;;;;;-2.78;90.54;98025.44;5073042;28;20048;-65
2022/01/07 05:41:06;;;;;;;5.10;1.20;;;;;;;-3.02;90.07;97995.41;5088749;28;20079;-65
2022/01/07 05:43:32;;;;;;;4.68;1.20;;;;;;;-2.88;87.25;98029.66;5090315;28;20048;-66
2022/01/07 05:45:59;;;;;;;4.32;1.10;;;;;;;-2.94;86.80;98027.44;5090366;28;20512;-64
2022/01/07 05:48:25;;;;;;;4.78;1.10;;;;;;;-2.95;86.57;98044.25;5091873;28;20063;-64
2022/01/07 05:50:51;;;;;;;4.28;1.20;;;;;;;-3.04;86.57;98042.25;5073804;28;20108;-65
2022/01/07 05:53:16;;;;;;;5.07;1.30;;;;;;;-3.08;85.52;98051.34;5073958;28;20492;-64
2022/01/07 05:55:42;;;;;;;4.93;1.20;;;;;;;-3.08;84.85;98057.47;5091726;28;20059;-66
2022/01/07 05:58:08;;;;;;;4.50;1.10;;;;;;;-3.09;85.37;98057.59;5073318;28;20036;-66
2022/01/07 06:00:34;;;;;;;4.22;1.20;;;;;;;-3.13;85.38;98053.47;5072394;28;20058;-64
2022/01/07 06:03:00;;;;;;;5.47;1.25;;;;;;;-3.28;85.68;98036.88;5073062;28;20055;-66
2022/01/07 06:05:25;;;;;;;4.90;1.30;;;;;;;-3.25;85.40;98048.06;5089939;28;20086;-66
2022/01/07 06:07:51;;;;;;;5.88;1.20;;;;;;;-3.12;85.61;98053.34;5073268;28;20105;-64
2022/01/07 06:10:17;;;;;;;7.20;1.63;;;;;;;-3.12;86.82;98068.38;5072931;28;20051;-66
2022/01/07 06:12:43;;;;;;;5.72;1.40;;;;;;;-3.10;85.87;98071.75;5090105;28;20541;-66
2022/01/07 06:15:09;;;;;;;5.40;1.40;;;;;;;-3.12;85.71;98077.13;5089799;28;20044;-67
2022/01/07 06:17:35;;;;;;;8.23;2.00;;;;;;;-3.05;85.95;98075.75;5072866;28;20244;-66
2022/01/07 06:20:03;;;;;;;6.75;1.65;;;;;;;-3.03;85.11;98079.16;5090198;28;20086;-67
2022/01/07 06:22:29;;;;;;;5.05;1.15;;;;;;;-3.06;84.55;98079.38;5072434;28;20495;-67
2022/01/07 06:24:55;;;;;;;4.90;1.23;;;;;;;-3.05;84.64;98074.91;5055470;28;20070;-67
2022/01/07 06:27:20;;;;;;;3.85;1.13;;;;;;;-3.03;84.91;98070.38;5073587;28;20042;-66
2022/01/07 06:29:46;;;;;;;8.25;1.60;;;;;;;-2.94;84.97;98077.66;5073608;28;20131;-66
2022/01/07 06:32:12;;;;;;;5.82;1.40;;;;;;;-2.99;85.34;98075.34;5073562;28;20087;-65
2022/01/07 06:34:38;;;;;;;7.75;1.77;;;;;;;-2.92;85.86;98081.91;5056888;28;20044;-66
2022/01/07 06:37:05;;;;;;;3.88;1.13;;;;;;;-3.26;85.69;98027.84;5073599;28;20048;-66
2022/01/07 06:39:32;;;;;;;5.55;1.52;;;;;;;-2.88;85.35;98087.84;5089787;28;20085;-66
2022/01/07 06:41:59;;;;;;;6.55;1.80;;;;;;;-2.91;85.56;98090.69;5073358;28;20052;-66
2022/01/07 06:44:26;;;;;;;8.52;2.40;;;;;;;-2.95;85.65;98091.84;5089720;28;20209;-65
2022/01/07 06:46:52;;;;;;;5.70;1.50;;;;;;;-2.95;84.30;98086.56;5090849;28;20052;-67
2022/01/07 06:49:19;;;;;;;6.55;1.70;;;;;;;-2.99;83.81;98091.22;5073737;28;20051;-65
2022/01/07 06:51:46;;;;;;;6.28;1.70;;;;;;;-3.00;83.77;98096.59;5091960;28;20511;-66
2022/01/07 06:54:12;;;;;;;6.88;1.90;;;;;;;-3.03;85.07;98116.16;5077645;28;20116;-67
2022/01/07 06:56:39;;;;;;;6.20;1.55;;;;;;;-3.10;84.40;98103.47;5077675;28;20205;-66
2022/01/07 06:59:05;;;;;;;9.55;1.67;;;;;;;-3.19;84.05;98121.63;5093371;28;20127;-66
2022/01/07 07:01:31;;;;;;;7.90;1.73;;;;;;;-3.29;84.22;98110.00;5094682;28;20044;-68
2022/01/07 07:03:56;;;;;;;7.47;1.88;;;;;;;-3.26;81.78;98119.50;5094511;28;20040;-72
2022/01/07 07:06:22;;;;;;;5.82;1.50;;;;;;;-3.43;79.66;98097.72;5077893;28;20067;-67
2022/01/07 07:08:48;;;;;;;5.05;1.35;;;;;;;-3.24;79.34;98133.47;5060304;28;20043;-67
2022/01/07 07:11:14;;;;;;;6.13;1.33;;;;;;;-3.34;79.23;98121.81;5093995;28;20104;-67
2022/01/07 07:13:40;;;;;;;5.15;1.42;;;;;;;-3.27;79.05;98134.50;5076674;28;20044;-69
2022/01/07 07:16:06;;;;;;;6.35;1.30;;;;;;;-3.28;79.93;98127.53;5059664;28;20048;-66
2022/01/07 07:18:31;;;;;;;6.80;1.50;;;;;;;-3.15;79.97;98132.84;5094722;28;20465;-68
2022/01/07 07:20:58;;;;;;;8.20;1.90;;;;;;;-3.01;79.81;98138.03;5076163;28;20074;-67
2022/01/07 07:23:24;;;;;;;9.80;1.98;;;;;;;-2.91;80.25;98138.28;5076496;28;20097;-66
2022/01/07 07:25:51;;;;;;;7.60;2.20;;;;;;;-2.86;80.57;98133.50;5059922;28;20116;-67
2022/01/07 07:28:18;;;;;;;6.28;1.80;;;;;;;-2.74;78.71;98145.91;5076706;28;20048;-67
2022/01/07 07:30:44;;;;;;;6.45;1.90;;;;;;;-3.26;79.59;98093.91;5071235;28;20116;-65
2022/01/07 07:38:43;;;;;;;7.47;2.08;;;;;;;-2.36;76.15;98152.97;5096103;28;20051;-71
2022/01/07 07:41:12;;;;;;;16.10;9.23;;;;;;;-1.48;70.70;98118.38;5078913;28;20123;-74
2022/01/07 07:43:39;;;;;;;8.00;3.50;;;;;;;-0.73;66.42;98157.81;5076367;28;20523;-73
2022/01/07 07:46:05;;;;;;;22.00;14.98;;;;;;;-0.05;64.12;98158.72;5074661;28;20043;-76
2022/01/07 07:48:32;;;;;;;7.93;3.78;;;;;;;0.42;61.63;98157.56;5087752;28;20095;-68
2022/01/07 07:50:58;;;;;;;6.30;1.75;;;;;;;0.26;60.12;98169.53;5069312;28;20178;-68
2022/01/07 07:53:24;;;;;;;6.40;1.90;;;;;;;-0.51;60.46;98167.63;5068288;28;20481;-69
2022/01/07 07:55:53;;;;;;;17.63;9.73;;;;;;;-1.05;61.30;98157.59;5081851;28;20075;-71
2022/01/07 07:58:24;;;;;;;7.78;2.50;;;;;;;-1.56;63.21;98160.50;5052521;28;20040;-74
2022/01/07 08:00:51;;;;;;;7.30;1.90;;;;;;;-1.44;62.75;98164.91;5086200;28;20061;-69
2022/01/07 08:03:18;;;;;;;5.57;1.58;;;;;;;-2.05;62.80;98129.63;5075886;28;20048;-73
2022/01/07 08:05:43;;;;;;;6.72;1.50;;;;;;;-1.80;63.64;98166.63;5080508;28;20048;-73
2022/01/07 08:08:09;;;;;;;6.25;1.70;;;;;;;-1.95;62.60;98173.03;5052355;28;20036;-66
2022/01/07 08:10:38;;;;;;;5.32;1.48;;;;;;;-1.98;61.92;98152.88;5059240;28;20475;-66
2022/01/07 08:18:14;;;;;;;5.72;1.30;;;;;;;-2.50;60.88;98193.63;5087885;28;20122;-67
2022/01/07 08:20:39;;;;;;;5.90;1.50;;;;;;;-2.85;60.96;98145.78;5083376;28;20048;-66
2022/01/07 08:23:06;;;;;;;4.63;1.15;;;;;;;-1.84;59.64;98196.94;5068990;28;20071;-66
2022/01/07 08:25:32;;;;;;;5.38;1.20;;;;;;;-1.70;58.79;98198.59;5073331;28;20551;-66
2022/01/07 08:28:03;;;;;;;6.30;1.20;;;;;;;-1.93;58.34;98171.13;5072379;28;20041;-65
2022/01/07 08:30:36;;;;;;;;;;;;;;;-2.17;60.30;98209.91;5061787;28;20131;-66
2022/01/07 08:34:53;;;;;;;4.45;1.20;;;;;;;-2.67;61.90;98173.63;5131215;27;20199;-67
2022/01/07 08:37:28;;;;;;;4.82;1.33;;;;;;;-2.67;61.98;98197.44;5085557;27;20334;-67
2022/01/07 08:39:55;;;;;;;4.97;1.30;;;;;;;-2.53;62.46;98222.91;5126629;27;20564;-66
2022/01/07 08:42:23;;;;;;;5.78;1.38;;;;;;;-2.71;63.42;98222.38;5076298;27;20038;-67
2022/01/07 08:44:51;;;;;;;5.45;1.48;;;;;;;-2.78;64.99;98236.97;5098520;27;20039;-67
2022/01/07 08:47:17;;;;;;;5.65;1.50;;;;;;;-2.79;65.10;98235.25;5086152;27;20462;-66
2022/01/07 08:49:43;;;;;;;7.35;1.73;;;;;;;-3.00;66.26;98240.22;5096817;27;20046;-66
2022/01/07 08:52:09;;;;;;;9.10;1.92;;;;;;;-2.99;67.12;98227.84;5075210;27;20039;-66
2022/01/07 08:54:34;;;;;;;9.00;2.67;;;;;;;-3.07;67.37;98246.84;5091522;27;20047;-66
2022/01/07 08:57:00;;;;;;;9.93;3.65;;;;;;;-2.90;68.29;98264.22;5080736;27;20058;-66
2022/01/07 08:59:26;;;;;;;7.70;2.05;;;;;;;-2.86;66.99;98256.94;5074159;27;20092;-66
2022/01/07 09:01:52;;;;;;;5.43;1.42;;;;;;;-3.27;67.33;98252.56;5097355;27;20086;-66
2022/01/07 09:04:18;;;;;;;8.07;1.63;;;;;;;-3.16;67.57;98269.41;5073259;27;20526;-66
2022/01/07 09:06:44;;;;;;;10.30;2.08;;;;;;;-3.37;67.16;98264.69;5089684;27;20042;-66
2022/01/07 09:09:10;;;;;;;7.95;2.33;;;;;;;-3.16;65.66;98264.13;5110145;27;20593;-66
2022/01/07 09:11:37;;;;;;;10.55;4.35;;;;;;;-3.38;63.47;98247.97;5106589;27;20043;-67
2022/01/07 09:14:02;;;;;;;8.60;2.65;;;;;;;-2.36;60.23;98285.28;5085029;27;20387;-66
2022/01/07 09:16:28;;;;;;;8.15;2.47;;;;;;;-1.84;58.21;98265.78;5060852;27;20040;-66
2022/01/07 09:18:54;;;;;;;6.85;2.15;;;;;;;-0.20;54.69;98290.03;5086264;27;20065;-65
2022/01/07 09:21:20;;;;;;;18.08;11.25;;;;;;;-0.39;53.74;98299.41;5087204;27;20648;-68
2022/01/07 09:23:47;;;;;;;7.78;2.13;;;;;;;-1.37;54.93;98243.00;5110641;27;20044;-66
2022/01/07 09:26:13;;;;;;;6.15;1.80;;;;;;;-0.50;54.88;98296.72;5110850;27;20035;-66
2022/01/07 09:28:39;;;;;;;8.05;2.60;;;;;;;-0.62;53.01;98297.63;5093312;27;20063;-66
2022/01/07 09:31:05;;;;;;;7.70;2.15;;;;;;;0.21;51.56;98303.63;5087531;27;20047;-66
2022/01/07 09:33:30;;;;;;;7.10;2.20;;;;;;;-0.23;51.56;98315.00;5101744;27;20044;-66
2022/01/07 09:35:56;;;;;;;9.80;2.40;;;;;;;-0.47;51.89;98291.19;5110422;27;20118;-66
2022/01/07 09:38:22;;;;;;;11.43;2.30;;;;;;;-0.02;49.67;98316.03;5085947;27;20154;-66
2022/01/07 09:40:51;;;;;;;7.13;2.00;;;;;;;1.07;48.37;98323.41;5051102;27;20447;-67
2022/01/07 09:43:17;;;;;;;7.90;2.33;;;;;;;-0.07;50.16;98325.34;5092870;27;20517;-66
2022/01/07 09:45:43;;;;;;;7.88;2.03;;;;;;;-0.79;51.80;98313.00;5059907;27;20383;-66
2022/01/07 09:48:09;;;;;;;8.95;2.10;;;;;;;-0.91;53.29;98340.44;5029431;28;20461;-66
2022/01/07 09:50:36;;;;;;;7.97;2.00;;;;;;;-1.10;52.69;98332.09;5072827;27;20040;-66
2022/01/07 09:53:09;;;;;;;7.00;1.90;;;;;;;-1.57;54.69;98341.63;5083506;27;20175;-67
2022/01/07 09:55:35;;;;;;;6.40;1.73;;;;;;;-1.17;53.60;98339.69;5080656;27;20450;-65
2022/01/07 09:58:01;;;;;;;6.90;1.88;;;;;;;-0.81;52.09;98349.41;5064293;27;20499;-66
2022/01/07 10:00:57;;;;;;;6.95;1.75;;;;;;;-0.56;52.23;98344.94;5097483;27;20091;-66
2022/01/07 10:03:23;;;;;;;6.65;1.90;;;;;;;1.47;46.58;98298.84;5048724;28;20051;-71
2022/01/07 10:05:49;;;;;;;7.10;2.03;;;;;;;3.55;42.56;98344.75;5059369;28;20036;-65
2022/01/07 10:08:29;;;;;;;9.68;2.28;;;;;;;4.20;40.90;98290.66;5083523;27;20091;-67
2022/01/07 10:11:14;;;;;;;8.38;2.88;;;;;;;4.18;40.96;98346.13;5104166;27;20051;-76
2022/01/07 10:13:43;;;;;;;6.78;1.92;;;;;;;2.71;41.71;98338.06;5100468;27;20579;-67
2022/01/07 10:16:20;;;;;;;5.22;1.52;;;;;;;2.23;43.24;98339.50;5071317;27;20047;-71
2022/01/07 10:18:47;;;;;;;5.50;1.65;;;;;;;3.25;41.48;98315.44;5118212;27;20055;-66
2022/01/07 10:21:15;;;;;;;6.40;2.17;;;;;;;5.05;38.55;98314.56;5099964;27;20388;-71
2022/01/07 10:23:42;;;;;;;7.45;2.53;;;;;;;5.83;37.36;98313.19;5041321;27;20122;-71
2022/01/07 10:26:17;;;;;;;9.10;2.50;;;;;;;5.12;36.95;98330.00;5089736;27;20031;-70
2022/01/07 10:28:44;;;;;;;9.18;3.10;;;;;;;6.02;35.94;98337.16;5102662;27;20054;-73
2022/01/07 10:31:10;;;;;;;7.32;2.40;;;;;;;6.31;34.86;98339.59;5073825;27;20130;-67
2022/01/07 10:33:41;;;;;;;8.43;2.20;;;;;;;6.38;34.19;98308.44;5081027;27;20047;-66
2022/01/07 10:36:07;;;;;;;7.90;2.20;;;;;;;5.35;35.67;98336.66;5080200;27;20049;-66
2022/01/07 10:38:35;;;;;;;6.72;2.22;;;;;;;4.71;36.60;98333.03;5083922;27;20043;-68
2022/01/07 10:41:02;;;;;;;6.88;2.20;;;;;;;5.33;36.63;98322.56;5091046;28;20548;-65
2022/01/07 10:43:35;;;;;;;9.23;5.03;;;;;;;6.72;35.05;98348.75;5097018;27;20528;-66
2022/01/07 10:46:10;;;;;;;9.27;2.33;;;;;;;7.30;33.84;98336.41;5112345;27;20047;-66
2022/01/07 10:48:47;;;;;;;7.68;2.42;;;;;;;6.19;35.13;98346.22;5110934;27;20452;-67
2022/01/07 10:51:13;;;;;;;;;;;;;;;5.26;36.06;98337.56;5095496;27;20039;-65
2022/01/07 10:53:40;;;;;;;8.68;2.03;;;;;;;4.09;37.67;98343.31;5127964;27;19923;-66
2022/01/07 10:56:16;;;;;;;7.65;2.20;;;;;;;3.61;38.60;98338.81;5099705;28;20060;-66
2022/01/07 10:58:45;;;;;;;7.05;2.00;;;;;;;4.57;36.80;98336.16;5132380;27;20054;-66
2022/01/07 11:01:20;;;;;;;6.88;1.83;;;;;;;4.21;38.14;98333.31;5111775;27;20035;-66
2022/01/07 11:03:54;;;;;;;6.50;1.75;;;;;;;3.57;38.98;98339.25;5067144;27;20153;-65
2022/01/07 11:06:21;;;;;;;5.85;1.90;;;;;;;4.69;38.46;98334.19;5093572;28;20040;-65
2022/01/07 11:08:52;;;;;;;6.03;1.52;;;;;;;3.92;37.89;98320.00;5093988;28;20061;-72
2022/01/07 11:11:20;;;;;;;6.05;1.70;;;;;;;3.24;39.32;98325.28;5066282;27;20435;-71
2022/01/07 11:13:46;;;;;;;7.43;1.70;;;;;;;2.71;39.91;98274.88;5098851;27;20039;-74
2022/01/07 11:16:12;;;;;;;6.57;1.52;;;;;;;3.10;39.82;98339.84;5105562;27;20047;-71
2022/01/07 11:18:40;;;;;;;6.70;1.70;;;;;;;2.82;40.20;98316.63;5048242;27;20043;-68
2022/01/07 11:21:07;;;;;;;5.97;1.77;;;;;;;3.83;39.54;98328.84;5066318;27;20040;-74
2022/01/07 11:23:37;;;;;;;6.07;1.52;;;;;;;3.40;40.01;98316.75;5081827;28;20058;-68
2022/01/07 11:26:07;;;;;;;8.18;2.25;;;;;;;3.18;40.26;98330.31;5076704;28;20415;-68
2022/01/07 11:28:34;;;;;;;7.00;1.85;;;;;;;4.17;39.06;98333.72;5083716;27;20094;-68
2022/01/07 11:31:06;;;;;;;7.28;1.90;;;;;;;3.70;38.25;98326.47;5099904;27;20059;-69
2022/01/07 11:33:32;;;;;;;6.07;1.85;;;;;;;3.68;39.25;98343.63;5082060;28;20032;-70
2022/01/07 11:35:58;;;;;;;6.72;1.52;;;;;;;3.65;38.53;98311.81;5089385;27;20071;-69
2022/01/07 11:41:58;;;;;;;6.25;1.50;;;;;;;3.71;39.16;98344.19;5078167;27;20103;-69
2022/01/07 11:44:26;;;;;;;6.90;1.85;;;;;;;3.24;40.15;98349.31;5090629;28;20036;-70
2022/01/07 11:47:23;;;;;;;6.45;1.90;;;;;;;3.05;40.84;98363.47;5110058;27;20561;-69
2022/01/07 11:50:09;;;;;;;7.15;1.90;;;;;;;2.42;41.80;98360.09;5111430;27;20043;-69